Time;durP1;ratioP1;P1;durP2;ratioP2;P2;SDS_P1;SDS_P2;PMS_P1;PMS_P2;Temp;Humidity;BMP_temperature;BMP_pressure;BME280_temperature;BME280_humidity;BME280_pressure;Samples;Min_cycle;Max_cycle;Signal;HPM_P1;HPM_P2
2022/02/16 00:00:19;;;;;;;1.83;0.65;;;;;;;3.02;73.18;97065.47;5067420;28;20059;-63
2022/02/16 00:02:46;;;;;;;1.15;0.55;;;;;;;3.32;71.90;97064.94;5082149;28;20044;-65
2022/02/16 00:05:15;;;;;;;1.95;0.60;;;;;;;3.46;71.30;97049.63;5086707;28;20047;-63
2022/02/16 00:07:41;;;;;;;4.63;0.73;;;;;;;3.59;70.99;97059.44;5081528;28;20054;-64
2022/02/16 00:10:11;;;;;;;1.67;0.52;;;;;;;3.62;70.50;97057.13;5086530;28;20575;-64
2022/02/16 00:12:39;;;;;;;0.50;0.38;;;;;;;3.61;70.81;97052.84;5066927;28;20632;-65
2022/02/16 00:15:07;;;;;;;1.83;0.70;;;;;;;3.61;70.55;97054.72;5064816;28;20522;-65
2022/02/16 00:17:36;;;;;;;4.20;1.08;;;;;;;3.73;70.37;97060.19;5071812;28;20039;-64
2022/02/16 00:20:04;;;;;;;2.85;1.10;;;;;;;3.79;70.19;97061.19;5085618;28;20059;-64
2022/02/16 00:22:31;;;;;;;2.45;0.60;;;;;;;3.77;70.35;97056.84;5085800;28;20051;-65
2022/02/16 00:24:57;;;;;;;3.75;0.75;;;;;;;3.88;69.97;97055.34;5085534;28;20059;-64
2022/02/16 00:27:24;;;;;;;3.05;1.42;;;;;;;3.96;69.52;97045.41;5082045;28;20040;-64
2022/02/16 00:29:51;;;;;;;2.00;0.63;;;;;;;3.94;69.62;97050.16;5072966;28;20044;-64
2022/02/16 00:32:17;;;;;;;3.35;0.70;;;;;;;3.94;69.86;97042.13;5077269;28;20059;-64
2022/02/16 00:34:44;;;;;;;1.98;0.70;;;;;;;3.92;70.04;97042.34;5086327;28;20392;-65
2022/02/16 00:37:11;;;;;;;0.80;0.47;;;;;;;3.98;69.76;97028.06;5073810;28;20039;-64
2022/02/16 00:39:38;;;;;;;2.05;0.45;;;;;;;4.01;69.83;97045.56;5076253;28;20041;-64
2022/02/16 00:42:05;;;;;;;1.77;0.52;;;;;;;4.04;69.83;97050.50;5080081;28;20561;-64
2022/02/16 00:44:31;;;;;;;3.05;0.82;;;;;;;4.08;70.09;97040.16;5085220;28;20423;-63
2022/02/16 00:46:58;;;;;;;3.78;1.00;;;;;;;4.03;70.35;97033.59;5078362;28;20131;-64
2022/02/16 00:49:25;;;;;;;3.45;0.82;;;;;;;3.98;70.68;97027.25;5066588;28;20041;-65
2022/02/16 00:51:52;;;;;;;3.22;0.50;;;;;;;3.96;70.82;97021.28;5084357;28;20046;-64
2022/02/16 00:54:24;;;;;;;1.42;0.60;;;;;;;3.98;71.03;97020.03;5086217;28;20044;-64
2022/02/16 00:56:51;;;;;;;2.53;0.82;;;;;;;4.01;71.01;97011.56;5080926;28;20160;-64
2022/02/16 00:59:24;;;;;;;0.57;0.30;;;;;;;4.07;70.80;97007.19;5071819;28;20600;-63
2022/02/16 01:01:51;;;;;;;1.48;0.55;;;;;;;4.01;71.46;97008.88;5078121;28;20048;-64
2022/02/16 01:04:18;;;;;;;1.17;0.50;;;;;;;3.96;71.72;97010.56;5084011;28;20043;-63
2022/02/16 01:06:48;;;;;;;0.77;0.43;;;;;;;4.02;71.74;97010.53;5078444;28;20043;-63
2022/02/16 01:09:15;;;;;;;2.40;0.70;;;;;;;4.01;71.72;97008.88;5072660;28;20044;-64
2022/02/16 01:11:43;;;;;;;3.65;0.80;;;;;;;3.95;72.05;97001.75;5085829;28;20036;-65
2022/02/16 01:14:09;;;;;;;3.47;1.50;;;;;;;3.96;72.15;97011.41;5070470;28;20051;-65
2022/02/16 01:16:44;;;;;;;2.08;0.60;;;;;;;4.00;72.13;97004.56;5069646;28;20052;-65
2022/02/16 01:19:27;;;;;;;2.55;0.82;;;;;;;3.97;72.37;97005.00;5069673;28;20047;-64
2022/02/16 01:21:54;;;;;;;0.55;0.30;;;;;;;3.96;72.20;96998.00;5082121;28;20044;-65
2022/02/16 01:24:21;;;;;;;1.23;0.50;;;;;;;3.98;72.50;96995.13;5081606;28;20110;-63
2022/02/16 01:26:48;;;;;;;1.60;0.45;;;;;;;3.97;72.49;97002.31;5069817;28;20563;-64
2022/02/16 01:29:16;;;;;;;6.50;0.98;;;;;;;3.98;72.54;96992.44;5082736;28;20078;-64
2022/02/16 01:31:52;;;;;;;1.92;0.50;;;;;;;3.94;72.89;96986.69;5087107;28;20044;-64
2022/02/16 01:34:23;;;;;;;2.17;0.43;;;;;;;3.94;72.88;96985.88;5087076;28;20131;-64
2022/02/16 01:36:50;;;;;;;1.40;0.50;;;;;;;3.95;72.64;96988.34;5077518;28;20511;-64
2022/02/16 01:39:17;;;;;;;3.78;1.35;;;;;;;3.87;73.22;96993.97;5085834;28;20461;-63
2022/02/16 01:41:45;;;;;;;1.35;0.50;;;;;;;3.80;73.58;96986.00;5087546;28;20036;-64
2022/02/16 01:44:23;;;;;;;0.45;0.38;;;;;;;3.83;73.63;96982.84;5087315;28;20093;-64
2022/02/16 01:46:55;;;;;;;3.17;0.70;;;;;;;3.88;73.43;96971.50;5087762;28;20481;-64
2022/02/16 01:49:26;;;;;;;2.22;0.40;;;;;;;3.79;73.88;96967.44;5082206;28;20072;-64
2022/02/16 01:51:54;;;;;;;1.35;0.47;;;;;;;3.86;73.73;96962.84;5083555;28;20383;-64
2022/02/16 01:54:25;;;;;;;3.00;0.80;;;;;;;3.79;73.95;96957.53;5101987;28;20051;-64
2022/02/16 01:56:53;;;;;;;0.90;0.77;;;;;;;3.74;74.36;96958.22;5085773;28;20766;-65
2022/02/16 01:59:24;;;;;;;3.45;0.90;;;;;;;3.72;74.49;96944.22;5081756;28;20041;-63
2022/02/16 02:02:16;;;;;;;0.88;0.45;;;;;;;3.63;74.91;96942.84;5069998;28;20060;-64
2022/02/16 02:04:45;;;;;;;1.52;0.50;;;;;;;3.66;74.79;96941.59;5085921;28;20036;-65
2022/02/16 02:07:14;;;;;;;1.77;0.70;;;;;;;3.72;74.55;96941.53;5085637;28;20044;-65
2022/02/16 02:09:40;;;;;;;2.00;0.50;;;;;;;3.70;74.73;96940.13;5076254;28;20147;-63
2022/02/16 02:12:07;;;;;;;2.78;0.50;;;;;;;3.64;75.06;96933.78;5087300;28;20044;-63
2022/02/16 02:14:40;;;;;;;0.98;0.80;;;;;;;3.65;75.07;96927.41;5073421;28;20054;-64
2022/02/16 02:17:10;;;;;;;1.17;0.50;;;;;;;3.63;75.14;96926.78;5077697;28;20124;-63
2022/02/16 02:19:37;;;;;;;1.05;0.52;;;;;;;3.61;75.53;96908.25;5074495;28;20040;-64
2022/02/16 02:22:06;;;;;;;2.85;0.52;;;;;;;3.62;75.27;96904.53;5085640;28;20071;-63
2022/02/16 02:24:32;;;;;;;1.80;0.50;;;;;;;3.59;75.61;96905.00;5087004;28;20680;-64
2022/02/16 02:26:59;;;;;;;1.27;0.80;;;;;;;3.60;75.60;96905.78;5085376;28;20040;-64
2022/02/16 02:29:26;;;;;;;2.88;1.10;;;;;;;3.59;75.59;96896.97;5086885;28;20541;-64
2022/02/16 02:32:15;;;;;;;3.75;0.70;;;;;;;3.63;75.40;96900.00;5078438;28;20134;-65
2022/02/16 02:34:42;;;;;;;0.70;0.43;;;;;;;3.63;75.45;96900.00;5087189;28;20063;-65
2022/02/16 02:37:09;;;;;;;3.95;0.45;;;;;;;3.68;75.40;96894.00;5075261;28;20067;-63
2022/02/16 02:39:36;;;;;;;1.48;0.40;;;;;;;3.68;75.43;96886.78;5067781;28;20040;-64
2022/02/16 02:42:03;;;;;;;0.40;0.30;;;;;;;3.65;75.62;96892.59;5069071;28;20041;-65
2022/02/16 02:44:31;;;;;;;2.90;0.65;;;;;;;3.71;75.43;96878.31;5079254;28;20105;-64
2022/02/16 02:46:58;;;;;;;1.63;0.57;;;;;;;3.57;76.20;96874.94;5050341;28;20040;-65
2022/02/16 02:49:29;;;;;;;5.68;0.85;;;;;;;3.62;75.80;96871.59;5080164;28;20070;-64
2022/02/16 02:51:56;;;;;;;2.00;0.40;;;;;;;3.55;76.21;96854.78;5091528;28;20059;-63
2022/02/16 02:54:24;;;;;;;0.30;0.30;;;;;;;3.54;76.50;96845.91;5071722;28;20044;-64
2022/02/16 02:56:50;;;;;;;2.83;0.63;;;;;;;3.54;76.88;96839.75;5070848;28;20098;-64
2022/02/16 02:59:17;;;;;;;1.92;0.40;;;;;;;3.51;76.59;96839.13;5078877;28;20055;-64
2022/02/16 03:01:49;;;;;;;0.30;0.30;;;;;;;3.52;76.76;96829.25;5083461;28;20074;-64
2022/02/16 03:04:15;;;;;;;1.45;0.30;;;;;;;3.61;76.46;96824.47;5075427;28;20049;-64
2022/02/16 03:06:42;;;;;;;1.55;0.50;;;;;;;3.52;76.76;96823.91;5067462;28;20032;-64
2022/02/16 03:09:09;;;;;;;1.30;0.40;;;;;;;3.57;76.69;96828.63;5068192;28;20384;-64
2022/02/16 03:11:38;;;;;;;1.13;0.60;;;;;;;3.54;76.86;96824.50;5072055;28;20041;-64
2022/02/16 03:14:05;;;;;;;1.17;0.60;;;;;;;3.52;76.83;96818.56;5066242;28;20048;-64
2022/02/16 03:16:36;;;;;;;2.08;0.50;;;;;;;3.56;76.70;96816.25;5066433;28;20037;-64
2022/02/16 03:19:05;;;;;;;0.35;0.30;;;;;;;3.60;76.66;96809.41;5085097;28;20126;-64
2022/02/16 03:21:32;;;;;;;1.58;0.40;;;;;;;3.59;76.69;96807.78;5084783;28;20051;-63
2022/02/16 03:23:59;;;;;;;0.45;0.40;;;;;;;3.57;76.87;96808.00;5084385;28;20044;-64
2022/02/16 03:26:26;;;;;;;0.68;0.30;;;;;;;3.58;76.82;96798.13;5078986;28;20673;-64
2022/02/16 03:28:54;;;;;;;1.85;0.40;;;;;;;3.60;76.70;96798.69;5065740;28;20040;-64
2022/02/16 03:31:23;;;;;;;0.47;0.35;;;;;;;3.57;76.93;96813.34;5069553;28;20075;-64
2022/02/16 03:33:59;;;;;;;0.85;0.40;;;;;;;3.55;77.00;96810.09;5083540;28;20047;-64
2022/02/16 03:36:27;;;;;;;1.35;0.40;;;;;;;3.58;76.89;96803.47;5081059;28;20068;-65
2022/02/16 03:38:55;;;;;;;0.40;0.28;;;;;;;3.59;76.86;96799.75;5083586;28;20036;-63
2022/02/16 03:41:26;;;;;;;0.40;0.30;;;;;;;3.61;77.02;96795.00;5082571;28;20048;-65
2022/02/16 03:43:52;;;;;;;0.45;0.40;;;;;;;3.57;77.11;96791.13;5085564;28;20415;-63
2022/02/16 03:46:22;;;;;;;0.65;0.30;;;;;;;3.61;76.98;96792.34;5084379;28;20055;-63
2022/02/16 03:48:49;;;;;;;0.70;0.45;;;;;;;3.58;77.23;96790.88;5049565;28;20135;-64
2022/02/16 03:51:16;;;;;;;0.20;0.20;;;;;;;3.59;77.07;96784.50;5083419;28;20127;-64
2022/02/16 03:53:44;;;;;;;1.15;0.52;;;;;;;3.62;77.50;96786.72;5076380;28;20522;-64
2022/02/16 03:56:11;;;;;;;0.40;0.40;;;;;;;3.65;77.08;96780.13;5084296;28;20044;-64
2022/02/16 03:58:39;;;;;;;0.30;0.20;;;;;;;3.66;77.13;96776.41;5076626;28;20040;-63
2022/02/16 04:01:07;;;;;;;0.40;0.40;;;;;;;3.69;77.11;96777.81;5079788;28;20051;-63
2022/02/16 04:03:35;;;;;;;1.85;0.50;;;;;;;3.67;77.28;96766.50;5082896;28;20044;-65
2022/02/16 04:06:01;;;;;;;1.65;0.32;;;;;;;3.68;77.25;96771.63;5086387;28;20157;-63
2022/02/16 04:08:28;;;;;;;0.65;0.30;;;;;;;3.72;77.25;96769.34;5082135;28;20511;-64
2022/02/16 04:10:55;;;;;;;0.28;0.20;;;;;;;3.70;77.43;96768.75;5067638;28;20048;-63
2022/02/16 04:13:23;;;;;;;1.30;0.40;;;;;;;3.73;77.26;96755.72;5066317;28;20044;-64
2022/02/16 04:15:52;;;;;;;0.38;0.38;;;;;;;3.76;77.37;96755.28;5064716;28;20052;-63
2022/02/16 04:18:18;;;;;;;0.20;0.20;;;;;;;3.78;77.08;96757.75;5077598;28;20489;-64
2022/02/16 04:20:46;;;;;;;3.05;0.43;;;;;;;3.81;77.06;96761.81;5084175;28;20545;-63
2022/02/16 04:23:16;;;;;;;1.02;0.32;;;;;;;3.76;77.38;96752.59;5054235;28;20146;-63
2022/02/16 04:25:43;;;;;;;0.25;0.20;;;;;;;3.76;77.34;96765.19;5077356;28;20055;-65
2022/02/16 04:28:12;;;;;;;0.20;0.20;;;;;;;3.76;77.55;96759.84;5069151;28;20059;-63
2022/02/16 04:30:40;;;;;;;1.13;0.50;;;;;;;3.76;77.50;96763.31;5064788;28;20045;-64
2022/02/16 04:33:08;;;;;;;0.25;0.20;;;;;;;3.83;77.29;96757.88;5076007;28;20040;-64
2022/02/16 04:35:37;;;;;;;2.33;0.40;;;;;;;3.79;77.63;96762.03;5084122;28;20139;-64
2022/02/16 04:38:07;;;;;;;1.20;0.40;;;;;;;3.81;77.52;96748.44;5072679;28;20514;-64
2022/02/16 04:40:34;;;;;;;1.10;0.40;;;;;;;3.75;77.75;96748.28;5066438;28;20036;-63
2022/02/16 04:43:03;;;;;;;1.85;0.50;;;;;;;3.75;78.00;96742.13;5069478;28;20036;-64
2022/02/16 04:45:31;;;;;;;0.40;0.20;;;;;;;3.75;77.96;96739.44;5063840;28;20051;-65
2022/02/16 04:47:59;;;;;;;1.05;0.40;;;;;;;3.69;78.32;96749.16;5074437;28;20040;-64
2022/02/16 04:50:26;;;;;;;1.17;0.50;;;;;;;3.68;78.31;96734.16;5077384;28;20075;-64
2022/02/16 04:52:54;;;;;;;0.90;0.50;;;;;;;3.66;78.32;96735.41;5080505;28;20037;-63
2022/02/16 04:55:34;;;;;;;0.30;0.20;;;;;;;3.59;78.44;96724.78;5079162;28;20048;-63
2022/02/16 04:58:07;;;;;;;1.75;0.75;;;;;;;3.57;78.58;96724.22;5079109;28;20082;-63
2022/02/16 05:00:34;;;;;;;1.17;0.40;;;;;;;3.48;79.03;96719.16;5065012;28;20044;-64
2022/02/16 05:03:13;;;;;;;1.65;0.80;;;;;;;3.45;78.86;96710.72;5066526;28;20495;-64
2022/02/16 05:05:40;;;;;;;0.90;0.50;;;;;;;3.42;78.90;96717.34;5064396;28;20052;-63
2022/02/16 05:08:07;;;;;;;0.75;0.55;;;;;;;3.36;79.07;96712.91;5073696;28;20119;-63
2022/02/16 05:10:34;;;;;;;1.95;0.57;;;;;;;3.28;79.23;96694.44;5065129;28;20045;-63
2022/02/16 05:13:03;;;;;;;1.33;0.50;;;;;;;3.27;79.28;96708.88;5064552;28;20036;-63
2022/02/16 05:15:30;;;;;;;1.42;0.77;;;;;;;3.24;79.18;96700.22;5070085;28;20036;-64
2022/02/16 05:17:56;;;;;;;1.30;0.60;;;;;;;3.21;79.40;96703.34;5083326;28;20043;-63
2022/02/16 05:20:45;;;;;;;1.40;0.52;;;;;;;3.17;79.66;96694.13;5076811;28;20056;-63
2022/02/16 05:23:12;;;;;;;1.77;0.52;;;;;;;3.14;79.84;96686.56;5080559;28;20036;-63
2022/02/16 05:25:39;;;;;;;1.08;0.63;;;;;;;3.14;79.64;96693.75;5079452;28;20531;-64
2022/02/16 05:28:07;;;;;;;2.22;0.60;;;;;;;3.12;79.85;96677.94;5069561;28;20044;-64
2022/02/16 05:30:34;;;;;;;1.85;0.80;;;;;;;3.07;79.98;96675.09;5066860;28;20734;-64
2022/02/16 05:33:01;;;;;;;2.05;0.73;;;;;;;3.07;80.05;96670.59;5078867;28;20078;-64
2022/02/16 05:35:29;;;;;;;0.82;0.50;;;;;;;3.12;80.05;96676.09;5074681;28;20056;-63
2022/02/16 05:37:55;;;;;;;2.25;0.50;;;;;;;3.08;80.32;96671.38;5072285;28;20044;-65
2022/02/16 05:40:25;;;;;;;2.03;0.80;;;;;;;3.14;80.24;96665.16;5082254;28;20044;-65
2022/02/16 05:42:53;;;;;;;1.88;0.85;;;;;;;3.10;80.30;96667.44;5078591;28;20150;-64
2022/02/16 05:45:21;;;;;;;1.70;0.70;;;;;;;3.10;80.23;96661.28;5084011;28;20043;-65
2022/02/16 05:47:48;;;;;;;4.68;1.05;;;;;;;3.17;80.24;96666.56;5083822;28;20040;-64
2022/02/16 05:50:15;;;;;;;1.58;0.70;;;;;;;3.14;80.51;96658.97;5085180;28;20033;-64
2022/02/16 05:52:41;;;;;;;1.65;0.60;;;;;;;3.17;80.24;96655.88;5093734;28;20087;-64
2022/02/16 05:55:08;;;;;;;1.38;0.50;;;;;;;3.10;80.38;96663.97;5079672;28;20044;-64
2022/02/16 05:57:35;;;;;;;0.80;0.50;;;;;;;3.11;80.84;96649.53;5072556;28;20097;-64
2022/02/16 06:00:04;;;;;;;3.47;0.50;;;;;;;3.18;80.45;96644.13;5084554;28;20437;-64
2022/02/16 06:02:37;;;;;;;3.10;0.90;;;;;;;3.13;80.57;96636.75;5086466;28;20075;-68
2022/02/16 06:05:08;;;;;;;0.65;0.52;;;;;;;3.18;80.76;96641.44;5077598;28;20130;-68
2022/02/16 06:07:35;;;;;;;0.80;0.55;;;;;;;3.18;80.65;96630.75;5082187;28;20028;-68
2022/02/16 06:10:04;;;;;;;1.35;0.60;;;;;;;3.14;80.95;96630.38;5084850;28;20123;-68
2022/02/16 06:12:32;;;;;;;0.70;0.50;;;;;;;3.10;80.97;96627.31;5074071;28;20043;-68
2022/02/16 06:14:58;;;;;;;1.40;0.73;;;;;;;3.15;80.85;96618.63;5081007;28;20403;-68
2022/02/16 06:17:26;;;;;;;1.58;0.75;;;;;;;3.09;81.11;96622.19;5079958;28;20144;-68
2022/02/16 06:19:54;;;;;;;2.22;0.77;;;;;;;3.12;81.08;96622.56;5082435;28;20129;-68
2022/02/16 06:22:21;;;;;;;2.30;0.80;;;;;;;3.16;81.23;96622.94;5082705;28;20151;-68
2022/02/16 06:24:47;;;;;;;2.58;0.63;;;;;;;3.18;80.92;96636.09;5082276;28;20040;-68
2022/02/16 06:27:14;;;;;;;1.35;0.75;;;;;;;3.21;80.93;96633.00;5080845;28;20052;-68
2022/02/16 06:29:41;;;;;;;1.92;0.70;;;;;;;3.24;80.65;96630.66;5079969;28;20059;-68
2022/02/16 06:32:27;;;;;;;1.83;0.73;;;;;;;3.26;80.59;96622.44;5085047;28;20055;-67
2022/02/16 06:34:55;;;;;;;1.23;0.60;;;;;;;3.24;80.77;96625.31;5080936;28;20507;-68
2022/02/16 06:37:22;;;;;;;1.63;0.55;;;;;;;3.32;80.57;96615.38;5081949;28;20078;-68
2022/02/16 06:39:50;;;;;;;3.35;0.70;;;;;;;3.32;80.61;96620.72;5089560;28;20112;-67
2022/02/16 06:42:18;;;;;;;1.83;0.55;;;;;;;3.31;80.70;96619.88;5091243;28;20050;-67
2022/02/16 06:44:45;;;;;;;1.98;0.65;;;;;;;3.31;80.82;96614.53;5103197;28;20097;-67
2022/02/16 06:47:14;;;;;;;1.00;0.60;;;;;;;3.40;80.78;96616.91;5090677;28;20040;-68
2022/02/16 06:49:41;;;;;;;1.05;0.70;;;;;;;3.40;80.58;96607.03;5084996;28;20079;-68
2022/02/16 06:52:08;;;;;;;1.67;0.80;;;;;;;3.40;80.69;96620.41;5087579;28;20052;-68
2022/02/16 06:54:35;;;;;;;1.88;0.70;;;;;;;3.44;80.59;96618.09;5091408;28;20047;-68
2022/02/16 06:57:02;;;;;;;1.38;0.73;;;;;;;3.47;80.57;96625.69;5091094;28;20102;-68
2022/02/16 06:59:55;;;;;;;0.55;0.47;;;;;;;3.50;80.75;96611.84;5084734;28;20438;-68
2022/02/16 07:02:22;;;;;;;1.00;0.60;;;;;;;3.51;80.77;96625.00;5084177;28;20044;-68
2022/02/16 07:04:49;;;;;;;1.83;0.80;;;;;;;3.54;80.75;96606.88;5085161;28;20051;-67
2022/02/16 07:07:16;;;;;;;1.77;0.60;;;;;;;3.63;80.54;96614.38;5083815;28;20079;-68
2022/02/16 07:09:43;;;;;;;3.58;0.80;;;;;;;3.78;80.14;96613.13;5067088;28;20106;-68
2022/02/16 07:12:09;;;;;;;1.60;0.65;;;;;;;3.80;80.54;96607.56;5091687;28;20126;-68
2022/02/16 07:14:42;;;;;;;1.67;0.88;;;;;;;3.84;79.78;96604.19;5086066;28;20072;-68
2022/02/16 07:17:09;;;;;;;1.45;0.60;;;;;;;3.89;79.86;96598.16;5085886;28;20627;-67
2022/02/16 07:19:36;;;;;;;0.75;0.50;;;;;;;3.91;79.76;96593.41;5086116;28;20067;-68
2022/02/16 07:22:24;;;;;;;3.45;0.90;;;;;;;3.95;79.80;96586.53;5086312;28;20129;-68
2022/02/16 07:24:51;;;;;;;4.15;1.25;;;;;;;4.05;79.43;96594.00;5086156;28;20063;-67
2022/02/16 07:27:17;;;;;;;2.72;1.08;;;;;;;4.10;79.35;96594.16;5086735;28;20044;-67
2022/02/16 07:29:44;;;;;;;2.08;0.70;;;;;;;4.23;79.26;96603.81;5087306;28;20059;-67
2022/02/16 07:32:11;;;;;;;1.83;0.47;;;;;;;4.36;78.70;96591.25;5085927;28;20097;-67
2022/02/16 07:34:38;;;;;;;0.38;0.28;;;;;;;4.50;78.39;96586.50;5083003;28;20071;-67
2022/02/16 07:37:07;;;;;;;0.68;0.30;;;;;;;4.66;77.83;96585.00;5085004;28;20068;-67
2022/02/16 07:39:34;;;;;;;3.05;0.40;;;;;;;4.85;76.79;96587.53;5085212;28;20036;-67
2022/02/16 07:42:05;;;;;;;0.95;0.45;;;;;;;4.90;76.70;96582.31;5087351;28;20040;-67
2022/02/16 07:44:43;;;;;;;0.85;0.30;;;;;;;4.93;76.67;96568.41;5085899;28;20047;-67
2022/02/16 07:47:22;;;;;;;0.57;0.20;;;;;;;4.94;76.84;96581.59;5085668;28;20074;-67
2022/02/16 07:49:51;;;;;;;1.17;0.38;;;;;;;4.96;76.54;96576.00;5085646;28;20064;-67
2022/02/16 07:52:23;;;;;;;0.88;0.28;;;;;;;5.01;76.45;96573.41;5097748;28;20079;-67
2022/02/16 07:54:59;;;;;;;0.35;0.20;;;;;;;5.02;76.42;96576.91;5095809;28;20051;-67
2022/02/16 07:57:34;;;;;;;0.20;0.20;;;;;;;5.01;76.34;96581.47;5084880;28;20062;-67
2022/02/16 08:00:01;;;;;;;0.32;0.15;;;;;;;5.08;76.25;96576.78;5085007;28;20051;-67
2022/02/16 08:02:30;;;;;;;0.30;0.30;;;;;;;5.13;76.03;96576.09;5085918;28;20040;-68
2022/02/16 08:04:57;;;;;;;0.10;0.10;;;;;;;5.18;75.70;96570.00;5085194;28;20032;-68
2022/02/16 08:07:24;;;;;;;0.55;0.30;;;;;;;5.18;75.95;96578.06;5084909;28;20101;-68
2022/02/16 08:09:51;;;;;;;0.20;0.20;;;;;;;5.17;76.18;96565.69;5085183;28;20040;-68
2022/02/16 08:12:17;;;;;;;6.00;0.40;;;;;;;5.17;76.33;96576.44;5085341;28;20048;-67
2022/02/16 08:14:44;;;;;;;0.20;0.20;;;;;;;5.16;76.64;96580.16;5086077;28;20040;-68
2022/02/16 08:17:11;;;;;;;2.17;1.20;;;;;;;5.22;76.19;96573.84;5084545;28;20044;-67
2022/02/16 08:19:37;;;;;;;0.65;0.20;;;;;;;5.21;76.55;96575.69;5086103;28;20036;-68
2022/02/16 08:22:04;;;;;;;1.08;0.20;;;;;;;5.21;77.07;96575.69;5086341;28;20081;-67
2022/02/16 08:24:35;;;;;;;0.28;0.20;;;;;;;5.18;77.37;96561.94;5084753;28;20093;-68
2022/02/16 08:27:02;;;;;;;0.22;0.10;;;;;;;5.15;77.72;96570.47;5084265;28;20135;-67
2022/02/16 08:29:35;;;;;;;1.17;0.30;;;;;;;5.14;78.40;96561.63;5082497;28;20036;-67
2022/02/16 08:32:09;;;;;;;0.28;0.20;;;;;;;5.18;77.54;96557.41;5085387;28;20043;-68
2022/02/16 08:35:02;;;;;;;0.82;0.40;;;;;;;5.20;77.89;96530.34;5083593;28;20485;-67
2022/02/16 08:37:30;;;;;;;0.50;0.20;;;;;;;5.19;78.62;96539.41;5084198;28;20093;-68
2022/02/16 08:39:57;;;;;;;0.20;0.15;;;;;;;5.08;78.91;96541.91;5086116;28;20423;-68
2022/02/16 08:42:23;;;;;;;0.13;0.13;;;;;;;5.06;79.53;96517.16;5085660;28;20174;-68
2022/02/16 08:44:50;;;;;;;0.98;0.40;;;;;;;5.05;79.70;96530.84;5085939;28;20039;-68
2022/02/16 08:47:16;;;;;;;0.20;0.20;;;;;;;5.05;79.91;96539.69;5083496;28;20036;-68
2022/02/16 08:49:45;;;;;;;0.47;0.30;;;;;;;5.07;79.59;96518.00;5085442;28;20051;-67
2022/02/16 08:52:12;;;;;;;0.20;0.20;;;;;;;5.06;80.12;96513.69;5085939;28;20040;-67
2022/02/16 08:54:39;;;;;;;2.60;0.30;;;;;;;5.02;80.87;96528.63;5085791;28;20044;-68
2022/02/16 08:57:06;;;;;;;0.63;0.30;;;;;;;5.03;80.84;96503.41;5085882;28;20040;-68
2022/02/16 08:59:33;;;;;;;0.40;0.20;;;;;;;5.10;81.01;96512.16;5085594;28;20032;-67
2022/02/16 09:02:00;;;;;;;0.10;0.10;;;;;;;5.18;81.24;96508.28;5085341;28;20044;-67
2022/02/16 09:04:26;;;;;;;0.20;0.20;;;;;;;5.23;80.98;96503.00;5086057;28;20059;-67
2022/02/16 09:09:40;;;;;;;0.17;0.17;;;;;;;5.32;80.71;96490.84;5086038;28;20049;-67
2022/02/16 09:12:08;;;;;;;0.70;0.30;;;;;;;5.31;81.03;96488.41;5086101;28;20051;-67
2022/02/16 09:14:35;;;;;;;0.20;0.20;;;;;;;5.41;80.35;96487.75;5084978;28;20052;-67
2022/02/16 09:17:04;;;;;;;0.30;0.20;;;;;;;5.46;80.20;96480.63;5085673;28;20044;-67
2022/02/16 09:19:35;;;;;;;0.70;0.20;;;;;;;5.54;80.19;96478.59;5085538;28;20037;-67
2022/02/16 09:22:03;;;;;;;1.65;0.30;;;;;;;5.67;79.62;96480.16;5085555;28;20055;-67
2022/02/16 09:24:30;;;;;;;0.30;0.30;;;;;;;5.72;79.22;96488.31;5085368;28;20392;-67
2022/02/16 09:26:57;;;;;;;0.77;0.32;;;;;;;5.83;79.25;96473.19;5083539;28;20125;-68
2022/02/16 09:29:24;;;;;;;0.47;0.20;;;;;;;5.85;79.01;96476.44;5084392;28;20109;-67
2022/02/16 09:31:51;;;;;;;0.20;0.20;;;;;;;5.85;78.48;96463.00;5087261;28;20534;-67
2022/02/16 09:34:19;;;;;;;0.75;0.25;;;;;;;5.89;78.64;96466.03;5089797;28;20044;-67
2022/02/16 09:36:46;;;;;;;0.73;0.30;;;;;;;5.92;78.56;96460.16;5089378;28;20044;-67
2022/02/16 09:39:12;;;;;;;0.47;0.20;;;;;;;6.05;77.86;96457.16;5088815;28;20036;-67
2022/02/16 09:41:43;;;;;;;1.63;0.40;;;;;;;6.06;78.32;96461.50;5089301;28;20040;-67
2022/02/16 09:44:13;;;;;;;0.30;0.20;;;;;;;6.04;78.30;96446.69;5088791;28;20048;-67
2022/02/16 09:46:41;;;;;;;0.20;0.20;;;;;;;6.05;78.69;96432.97;5089272;28;20047;-67
2022/02/16 09:49:11;;;;;;;0.75;0.38;;;;;;;6.14;78.49;96443.31;5087936;28;20032;-67
2022/02/16 09:51:39;;;;;;;0.45;0.30;;;;;;;6.17;78.23;96422.16;5093262;28;20327;-67
2022/02/16 09:54:06;;;;;;;0.55;0.30;;;;;;;6.23;78.10;96421.13;5106805;27;20043;-67
2022/02/16 09:56:33;;;;;;;1.20;0.50;;;;;;;6.32;77.93;96431.47;5089113;28;20040;-67
2022/02/16 09:59:01;;;;;;;1.23;0.55;;;;;;;6.38;77.81;96430.50;5088538;28;20050;-67
2022/02/16 10:01:28;;;;;;;1.02;0.60;;;;;;;6.31;78.20;96403.78;5089623;28;20430;-67
2022/02/16 10:03:59;;;;;;;0.85;0.32;;;;;;;6.31;77.62;96433.38;5089085;28;20044;-67
2022/02/16 10:06:41;;;;;;;0.50;0.40;;;;;;;6.28;78.72;96433.84;5088757;28;20048;-67
2022/02/16 10:09:22;;;;;;;0.65;0.40;;;;;;;6.20;78.79;96448.50;5088679;28;20688;-67
2022/02/16 10:11:52;;;;;;;0.77;0.30;;;;;;;6.29;78.58;96443.53;5089027;28;20040;-67
2022/02/16 10:14:27;;;;;;;0.30;0.20;;;;;;;6.34;77.85;96440.13;5087449;28;20048;-67
2022/02/16 10:16:54;;;;;;;0.40;0.30;;;;;;;6.37;78.27;96453.03;5087311;28;20056;-67
2022/02/16 10:19:21;;;;;;;1.75;0.40;;;;;;;6.52;78.16;96448.97;5094946;28;20043;-67
2022/02/16 10:22:05;;;;;;;0.70;0.30;;;;;;;6.57;77.75;96449.84;5077823;28;20040;-67
2022/02/16 10:24:34;;;;;;;0.65;0.30;;;;;;;6.52;78.06;96447.06;5083900;28;20770;-67
2022/02/16 10:27:02;;;;;;;1.38;0.30;;;;;;;6.60;78.33;96454.69;5084797;28;20048;-67
2022/02/16 10:29:32;;;;;;;1.63;0.57;;;;;;;6.69;77.55;96443.50;5085483;28;20055;-67
2022/02/16 10:31:59;;;;;;;0.98;0.45;;;;;;;6.65;78.29;96443.22;5080109;28;20041;-67
2022/02/16 10:34:49;;;;;;;1.35;0.40;;;;;;;6.66;77.88;96439.44;5079155;28;20046;-67
2022/02/16 10:37:18;;;;;;;0.77;0.30;;;;;;;6.78;77.98;96439.31;5099464;28;20036;-68
2022/02/16 10:40:10;;;;;;;1.08;0.40;;;;;;;6.88;78.04;96435.94;5102449;28;20890;-67
2022/02/16 10:42:53;;;;;;;0.63;0.30;;;;;;;7.05;76.87;96414.34;5072271;28;20047;-67
2022/02/16 10:45:23;;;;;;;0.90;0.50;;;;;;;7.05;76.87;96414.34;5081783;28;20416;-66
2022/02/16 10:47:53;;;;;;;1.88;0.50;;;;;;;7.35;77.16;96396.06;5083253;28;20495;-67
2022/02/16 10:50:21;;;;;;;0.30;0.30;;;;;;;7.29;76.83;96396.00;5099951;28;20047;-67
2022/02/16 10:52:50;;;;;;;0.30;0.30;;;;;;;7.32;76.58;96386.59;5086610;28;20047;-66
2022/02/16 10:55:16;;;;;;;0.30;0.20;;;;;;;7.50;76.23;96390.00;5074567;28;20055;-66
2022/02/16 10:57:45;;;;;;;0.93;0.20;;;;;;;7.75;75.54;96383.19;5079416;28;20035;-66
2022/02/16 11:00:12;;;;;;;0.50;0.30;;;;;;;7.73;75.75;96390.69;5105280;28;20048;-67
2022/02/16 11:02:40;;;;;;;0.20;0.20;;;;;;;7.97;74.83;96376.88;5092612;28;20040;-66
2022/02/16 11:05:09;;;;;;;0.63;0.30;;;;;;;7.94;75.31;96387.09;5092657;28;20839;-67
2022/02/16 11:07:36;;;;;;;1.15;0.38;;;;;;;7.96;75.24;96376.03;5069762;28;20044;-66
2022/02/16 11:10:05;;;;;;;1.23;0.40;;;;;;;7.97;75.39;96393.84;5101167;28;20043;-67
2022/02/16 11:12:32;;;;;;;1.17;0.30;;;;;;;8.05;75.03;96382.59;5090685;28;20040;-66
2022/02/16 11:14:59;;;;;;;1.08;0.30;;;;;;;8.18;74.91;96375.91;5083006;28;20037;-66
2022/02/16 11:17:26;;;;;;;0.55;0.30;;;;;;;8.25;74.12;96375.69;5080116;28;20043;-66
2022/02/16 11:20:19;;;;;;;0.52;0.20;;;;;;;8.17;74.41;96371.59;5103473;28;20050;-67
2022/02/16 11:22:58;;;;;;;0.32;0.22;;;;;;;8.35;74.32;96377.63;5084363;28;20040;-66
2022/02/16 11:25:27;;;;;;;0.50;0.28;;;;;;;8.35;74.69;96377.63;5084752;28;20410;-67
2022/02/16 11:27:54;;;;;;;0.20;0.10;;;;;;;8.41;74.54;96360.38;5085079;28;20426;-66
2022/02/16 11:30:31;;;;;;;0.40;0.22;;;;;;;8.39;74.16;96376.03;5098326;28;20061;-66
2022/02/16 11:33:11;;;;;;;0.22;0.20;;;;;;;8.42;73.89;96386.31;5083240;28;20044;-67
2022/02/16 11:35:53;;;;;;;0.60;0.30;;;;;;;8.52;73.54;96368.53;5084617;28;20536;-66
2022/02/16 11:38:21;;;;;;;;;;;;;;;8.49;73.71;96369.06;5085350;28;20044;-66
2022/02/16 11:40:50;;;;;;;0.38;0.10;;;;;;;8.49;73.78;96383.38;5087026;28;19927;-66
2022/02/16 11:43:22;;;;;;;0.40;0.20;;;;;;;8.49;74.50;96377.13;5086505;28;20039;-66
2022/02/16 11:45:59;;;;;;;0.47;0.30;;;;;;;8.52;73.78;96374.72;5085747;28;20031;-66
2022/02/16 11:48:43;;;;;;;1.45;0.28;;;;;;;8.50;74.36;96367.97;5093084;28;20105;-66
2022/02/16 11:51:22;;;;;;;0.30;0.17;;;;;;;8.52;74.28;96363.13;5085288;28;20230;-67
2022/02/16 11:53:50;;;;;;;0.38;0.20;;;;;;;8.60;73.88;96376.16;5095171;28;20040;-66